Al Kut, Iraq
Current Conditions -  °F | °C
As of 3:00 PM on Wednesday 28 Jan 2015 (Local Time) from OICI Reporting Station
Overcast Overcast  
Wind Chill: 57°   Ceiling: 9000
Heat Index: 57°   Visibility: 6mi
Dew Point: 34°   Wind: 14mph
Humidity: 41%   Direction: 110°ESE
Pressure: 30"   Gusts: NA
Location:  32.5°N, 45.82°E
Report Text: OICI 281200Z 11012KT 9999 SCT040 OVC090 14/01 Q1016 A3001
Loading
Personal Weather Stations






























Interactive Weather Map New forecast layout! Learn more

10-Day Weather Forecast

Advertisements
Track Severe Weather on mobile